Time;durP1;ratioP1;P1;durP2;ratioP2;P2;SDS_P1;SDS_P2;PMS_P1;PMS_P2;Temp;Humidity;BMP_temperature;BMP_pressure;BME280_temperature;BME280_humidity;BME280_pressure;Samples;Min_cycle;Max_cycle;Signal;HPM_P1;HPM_P2
2022/08/24 00:02:08;;;;;;;97.70;60.90;;;;;;;;;;5030243;28;20120;-66
2022/08/24 00:04:34;;;;;;;101.38;60.63;;;;;;;;;;5035093;28;20057;-66
2022/08/24 00:07:01;;;;;;;101.28;63.33;;;;;;;;;;5032570;28;20128;-66
2022/08/24 00:09:29;;;;;;;102.68;63.45;;;;;;;;;;5031517;28;20017;-67
2022/08/24 00:11:55;;;;;;;118.78;73.63;;;;;;;;;;5032771;28;20112;-67
2022/08/24 00:14:21;;;;;;;117.15;72.88;;;;;;;;;;5029330;28;20128;-66
2022/08/24 00:16:47;;;;;;;110.30;68.68;;;;;;;;;;5032477;28;20038;-67
2022/08/24 00:19:13;;;;;;;111.65;70.10;;;;;;;;;;5030388;28;20066;-66
2022/08/24 00:21:39;;;;;;;111.85;69.15;;;;;;;;;;5035502;28;20033;-66
2022/08/24 00:24:05;;;;;;;106.43;65.75;;;;;;;;;;5033498;28;20109;-66
2022/08/24 00:26:31;;;;;;;108.10;66.18;;;;;;;;;;5022031;28;20029;-67
2022/08/24 00:28:57;;;;;;;104.05;63.30;;;;;;;;;;5030417;28;20040;-67
2022/08/24 00:31:24;;;;;;;118.68;71.90;;;;;;;;;;5031121;28;20041;-66
2022/08/24 00:33:50;;;;;;;121.05;72.55;;;;;;;;;;5014465;28;20031;-66
2022/08/24 00:36:16;;;;;;;115.30;69.15;;;;;;;;;;5015653;28;20516;-66
2022/08/24 00:38:42;;;;;;;114.50;69.13;;;;;;;;;;5032701;28;20037;-66
2022/08/24 00:41:08;;;;;;;110.93;67.72;;;;;;;;;;5010929;28;20108;-66
2022/08/24 00:43:34;;;;;;;117.70;69.82;;;;;;;;;;5029325;28;20066;-66
2022/08/24 00:46:09;;;;;;;111.40;68.30;;;;;;;;;;5037882;28;20088;-67
2022/08/24 00:48:39;;;;;;;113.15;65.32;;;;;;;;;;5037250;28;20126;-68
2022/08/24 00:51:23;;;;;;;114.88;67.68;;;;;;;;;;5038627;28;20029;-68
2022/08/24 00:53:51;;;;;;;116.88;68.05;;;;;;;;;;5034956;28;20121;-67
2022/08/24 00:56:20;;;;;;;126.50;75.53;;;;;;;;;;5027298;28;20474;-68
2022/08/24 00:58:50;;;;;;;105.53;65.70;;;;;;;;;;5030500;28;20332;-67
2022/08/24 01:01:17;;;;;;;117.28;68.75;;;;;;;;;;5031952;28;20025;-67
2022/08/24 01:03:45;;;;;;;100.43;59.40;;;;;;;;;;5033306;28;20029;-67
2022/08/24 01:06:11;;;;;;;96.25;58.20;;;;;;;;;;5036261;28;20029;-67
2022/08/24 01:08:39;;;;;;;86.15;56.13;;;;;;;;;;5031842;28;20091;-66
2022/08/24 01:11:11;;;;;;;65.90;45.60;;;;;;;;;;5035937;28;20095;-67
2022/08/24 01:13:37;;;;;;;63.60;47.53;;;;;;;;;;5031877;28;20032;-67
2022/08/24 01:16:04;;;;;;;70.50;47.95;;;;;;;;;;5031807;28;20026;-67
2022/08/24 01:18:49;;;;;;;78.88;51.70;;;;;;;;;;5033709;28;20045;-67
2022/08/24 01:21:17;;;;;;;76.30;52.55;;;;;;;;;;5034419;28;20029;-67
2022/08/24 01:23:53;;;;;;;71.35;49.90;;;;;;;;;;5034022;28;20544;-67
2022/08/24 01:26:24;;;;;;;71.78;49.90;;;;;;;;;;5030401;28;20087;-67
2022/08/24 01:28:54;;;;;;;76.20;51.45;;;;;;;;;;5037838;28;20469;-67
2022/08/24 01:31:21;;;;;;;72.53;49.70;;;;;;;;;;5035383;28;20021;-67
2022/08/24 01:33:49;;;;;;;77.32;50.53;;;;;;;;;;5041511;28;20041;-67
2022/08/24 01:36:21;;;;;;;75.80;46.72;;;;;;;;;;5038765;28;20506;-67
2022/08/24 01:38:48;;;;;;;81.35;51.55;;;;;;;;;;5039433;28;20033;-67
2022/08/24 01:41:14;;;;;;;76.72;49.83;;;;;;;;;;5042228;28;20378;-67
2022/08/24 01:43:40;;;;;;;83.68;54.22;;;;;;;;;;5018550;28;20037;-67
2022/08/24 01:46:06;;;;;;;77.25;50.50;;;;;;;;;;5034862;28;20056;-66
2022/08/24 01:48:32;;;;;;;70.95;47.85;;;;;;;;;;5015860;28;20087;-66
2022/08/24 01:50:58;;;;;;;74.57;50.55;;;;;;;;;;5033385;28;20033;-66
2022/08/24 01:53:24;;;;;;;70.25;47.38;;;;;;;;;;5033315;28;20029;-65
2022/08/24 01:55:50;;;;;;;59.42;39.58;;;;;;;;;;5034819;28;20041;-66
2022/08/24 01:58:16;;;;;;;62.33;40.80;;;;;;;;;;5015227;28;20041;-66
2022/08/24 02:00:43;;;;;;;58.03;42.17;;;;;;;;;;5035086;28;20051;-66
2022/08/24 02:03:09;;;;;;;64.55;44.20;;;;;;;;;;5036934;28;20025;-67
2022/08/24 02:05:35;;;;;;;66.20;45.80;;;;;;;;;;5037920;28;20056;-66
2022/08/24 02:08:02;;;;;;;53.65;39.30;;;;;;;;;;5034664;28;20167;-66
2022/08/24 02:10:28;;;;;;;58.33;41.40;;;;;;;;;;5033538;28;20025;-66
2022/08/24 02:12:57;;;;;;;57.53;41.90;;;;;;;;;;5034296;28;20026;-65
2022/08/24 02:15:30;;;;;;;52.13;42.67;;;;;;;;;;5037605;28;20029;-66
2022/08/24 02:17:57;;;;;;;66.38;42.88;;;;;;;;;;5031936;28;20041;-66
2022/08/24 02:20:23;;;;;;;62.90;44.70;;;;;;;;;;5035710;28;20432;-67
2022/08/24 02:22:50;;;;;;;53.50;42.40;;;;;;;;;;5031882;28;20059;-67
2022/08/24 02:25:16;;;;;;;46.85;38.70;;;;;;;;;;5033757;28;20106;-66
2022/08/24 02:27:42;;;;;;;42.55;37.70;;;;;;;;;;5034505;28;20029;-66
2022/08/24 02:30:09;;;;;;;43.67;36.88;;;;;;;;;;5035262;28;20056;-66
2022/08/24 02:32:35;;;;;;;43.28;33.80;;;;;;;;;;5038403;28;20029;-66
2022/08/24 02:35:01;;;;;;;40.72;33.72;;;;;;;;;;5034508;28;20054;-66
2022/08/24 02:37:27;;;;;;;39.50;35.20;;;;;;;;;;5035372;28;20033;-66
2022/08/24 02:39:53;;;;;;;33.65;29.88;;;;;;;;;;5036954;28;20047;-66
2022/08/24 02:42:19;;;;;;;32.30;28.80;;;;;;;;;;5024470;28;20029;-67
2022/08/24 02:44:45;;;;;;;35.28;30.83;;;;;;;;;;5038380;28;20056;-66
2022/08/24 02:47:11;;;;;;;34.13;30.50;;;;;;;;;;5051223;28;20037;-66
2022/08/24 02:49:37;;;;;;;32.70;28.75;;;;;;;;;;5056931;28;20115;-67
2022/08/24 02:52:04;;;;;;;34.10;30.15;;;;;;;;;;5051745;28;20059;-67
2022/08/24 02:54:30;;;;;;;32.83;28.20;;;;;;;;;;5053886;28;20311;-66
2022/08/24 02:56:56;;;;;;;43.33;33.47;;;;;;;;;;5056022;28;20460;-66
2022/08/24 02:59:22;;;;;;;43.05;33.30;;;;;;;;;;5054170;28;20478;-67
2022/08/24 03:01:49;;;;;;;38.25;31.83;;;;;;;;;;5055202;28;20175;-67
2022/08/24 03:04:15;;;;;;;30.75;27.40;;;;;;;;;;5054438;28;20033;-67
2022/08/24 03:06:42;;;;;;;30.73;26.65;;;;;;;;;;5051847;28;20040;-66
2022/08/24 03:09:08;;;;;;;29.42;25.65;;;;;;;;;;5052978;28;20021;-67
2022/08/24 03:11:35;;;;;;;28.73;24.92;;;;;;;;;;5054827;28;20503;-66
2022/08/24 03:14:01;;;;;;;27.77;23.80;;;;;;;;;;5051482;28;20021;-67
2022/08/24 03:16:28;;;;;;;27.30;24.42;;;;;;;;;;5052633;28;20024;-66
2022/08/24 03:18:54;;;;;;;27.80;24.48;;;;;;;;;;5055519;28;20032;-66
2022/08/24 03:21:20;;;;;;;32.95;27.77;;;;;;;;;;5058839;28;20433;-66
2022/08/24 03:23:46;;;;;;;34.88;28.88;;;;;;;;;;5052405;28;20036;-66
2022/08/24 03:26:12;;;;;;;39.35;30.08;;;;;;;;;;5050102;28;20025;-66
2022/08/24 03:28:39;;;;;;;35.03;28.73;;;;;;;;;;5049600;28;20095;-65
2022/08/24 03:31:05;;;;;;;31.50;27.35;;;;;;;;;;5053883;28;20037;-66
2022/08/24 03:33:31;;;;;;;30.63;25.52;;;;;;;;;;5052459;28;20055;-67
2022/08/24 03:35:58;;;;;;;36.17;27.77;;;;;;;;;;5055052;28;20563;-67
2022/08/24 03:38:24;;;;;;;34.45;27.70;;;;;;;;;;5051769;28;20044;-67
2022/08/24 03:40:50;;;;;;;26.45;23.25;;;;;;;;;;5052001;28;20540;-67
2022/08/24 03:46:01;;;;;;;29.10;24.38;;;;;;;;;;5032215;28;20496;-66
2022/08/24 03:48:28;;;;;;;35.80;28.30;;;;;;;;;;5036691;28;20025;-67
2022/08/24 03:50:54;;;;;;;36.65;29.73;;;;;;;;;;5032382;28;20116;-66
2022/08/24 03:53:20;;;;;;;43.25;35.28;;;;;;;;;;5034587;28;20017;-67
2022/08/24 03:55:47;;;;;;;48.17;36.70;;;;;;;;;;5031861;28;20034;-67
2022/08/24 03:58:14;;;;;;;51.67;37.65;;;;;;;;;;5031847;28;20030;-66
2022/08/24 04:00:41;;;;;;;49.42;37.03;;;;;;;;;;5031666;28;20118;-66
2022/08/24 04:03:10;;;;;;;47.33;36.60;;;;;;;;;;5031703;28;20029;-67
2022/08/24 04:05:37;;;;;;;44.72;34.05;;;;;;;;;;5024134;28;20037;-66
2022/08/24 04:08:04;;;;;;;42.47;32.35;;;;;;;;;;5029776;28;20032;-66
2022/08/24 04:10:30;;;;;;;46.33;33.58;;;;;;;;;;5026158;28;20506;-66
2022/08/24 04:12:56;;;;;;;41.88;32.42;;;;;;;;;;5031762;28;20046;-66
2022/08/24 04:15:23;;;;;;;36.85;27.90;;;;;;;;;;5033185;28;20041;-66
2022/08/24 04:17:50;;;;;;;38.65;28.55;;;;;;;;;;5032271;28;20180;-67
2022/08/24 04:20:16;;;;;;;37.20;29.40;;;;;;;;;;5030208;28;20350;-66
2022/08/24 04:22:43;;;;;;;38.83;28.15;;;;;;;;;;5031016;28;20040;-66
2022/08/24 04:25:09;;;;;;;42.40;29.27;;;;;;;;;;5032928;28;20041;-66
2022/08/24 04:27:35;;;;;;;39.38;29.00;;;;;;;;;;5030266;28;20029;-67
2022/08/24 04:30:02;;;;;;;39.95;26.90;;;;;;;;;;5031681;28;20486;-66
2022/08/24 04:32:30;;;;;;;39.58;27.88;;;;;;;;;;5013485;28;20057;-67
2022/08/24 04:34:58;;;;;;;33.67;25.63;;;;;;;;;;5029162;28;20465;-66
2022/08/24 04:37:24;;;;;;;32.33;24.17;;;;;;;;;;5032989;28;20041;-67
2022/08/24 04:39:50;;;;;;;34.45;27.08;;;;;;;;;;5032477;28;20033;-66
2022/08/24 04:42:16;;;;;;;45.17;33.00;;;;;;;;;;5028389;28;20530;-66
2022/08/24 04:44:42;;;;;;;52.80;36.25;;;;;;;;;;5034162;28;20053;-66
2022/08/24 04:47:08;;;;;;;50.67;33.33;;;;;;;;;;5036299;28;20035;-66
2022/08/24 04:49:35;;;;;;;46.53;33.20;;;;;;;;;;5036076;28;20033;-67
2022/08/24 04:52:01;;;;;;;54.55;36.53;;;;;;;;;;5034975;28;20029;-66
2022/08/24 04:54:27;;;;;;;56.92;36.50;;;;;;;;;;5038661;28;20033;-70
2022/08/24 04:56:54;;;;;;;63.03;35.25;;;;;;;;;;5031754;28;20037;-66
2022/08/24 04:59:20;;;;;;;57.33;35.55;;;;;;;;;;5015477;28;20045;-67
2022/08/24 05:01:47;;;;;;;47.47;32.00;;;;;;;;;;5039383;28;20056;-67
2022/08/24 05:04:13;;;;;;;50.03;34.60;;;;;;;;;;5033829;28;20069;-65
2022/08/24 05:06:40;;;;;;;56.60;40.25;;;;;;;;;;5039607;28;20107;-66
2022/08/24 05:09:06;;;;;;;58.92;35.40;;;;;;;;;;5040455;28;20029;-66
2022/08/24 05:11:32;;;;;;;55.30;38.95;;;;;;;;;;5021716;28;20048;-66
2022/08/24 05:13:58;;;;;;;66.82;43.85;;;;;;;;;;5035435;28;20379;-66
2022/08/24 05:16:25;;;;;;;109.07;75.40;;;;;;;;;;5041341;28;20029;-67
2022/08/24 05:18:53;;;;;;;66.13;38.05;;;;;;;;;;5039009;28;20049;-67
2022/08/24 05:21:20;;;;;;;60.25;37.08;;;;;;;;;;5041567;28;20057;-67
2022/08/24 05:23:46;;;;;;;50.38;35.85;;;;;;;;;;5036769;28;20033;-67
2022/08/24 05:26:14;;;;;;;40.97;29.77;;;;;;;;;;5032906;28;20174;-67
2022/08/24 05:28:41;;;;;;;36.60;27.27;;;;;;;;;;5035165;28;20039;-67
2022/08/24 05:31:11;;;;;;;24.15;19.42;;;;;;;;;;5033772;28;20055;-67
2022/08/24 05:33:38;;;;;;;28.73;17.15;;;;;;;;;;5039840;28;20036;-67
2022/08/24 05:36:05;;;;;;;32.45;15.82;;;;;;;;;;5035641;28;20048;-67
2022/08/24 05:38:32;;;;;;;20.83;15.43;;;;;;;;;;5042500;28;20033;-67
2022/08/24 05:40:59;;;;;;;18.13;12.40;;;;;;;;;;5045910;28;20487;-67
2022/08/24 05:43:25;;;;;;;23.85;12.10;;;;;;;;;;5024158;28;20041;-67
2022/08/24 05:45:51;;;;;;;16.30;11.45;;;;;;;;;;5037486;28;20410;-68
2022/08/24 05:48:17;;;;;;;15.25;11.43;;;;;;;;;;5042481;28;20091;-67
2022/08/24 05:50:44;;;;;;;15.73;11.68;;;;;;;;;;5040954;28;20049;-67
2022/08/24 05:53:10;;;;;;;20.33;13.60;;;;;;;;;;5035465;28;20108;-67
2022/08/24 05:55:37;;;;;;;15.68;12.15;;;;;;;;;;5040193;28;20029;-67
2022/08/24 05:58:03;;;;;;;25.58;12.60;;;;;;;;;;5036850;28;20045;-73
2022/08/24 06:00:30;;;;;;;16.75;11.60;;;;;;;;;;5041335;28;20089;-67
2022/08/24 06:02:56;;;;;;;15.70;11.18;;;;;;;;;;5040803;28;20045;-68
2022/08/24 06:05:22;;;;;;;16.70;11.98;;;;;;;;;;5016127;28;20051;-68
2022/08/24 06:07:48;;;;;;;21.40;13.10;;;;;;;;;;5043883;28;20032;-68
2022/08/24 06:10:15;;;;;;;17.42;11.63;;;;;;;;;;5041730;28;20033;-68
2022/08/24 06:12:41;;;;;;;27.38;13.68;;;;;;;;;;5041405;28;20080;-67
2022/08/24 06:15:07;;;;;;;19.60;13.82;;;;;;;;;;5038000;28;20063;-66
2022/08/24 06:17:33;;;;;;;23.08;16.80;;;;;;;;;;5038464;28;20021;-67
2022/08/24 06:19:59;;;;;;;23.65;18.92;;;;;;;;;;5039743;28;20047;-67
2022/08/24 06:22:25;;;;;;;33.35;20.05;;;;;;;;;;5041435;28;20482;-67
2022/08/24 06:27:40;;;;;;;29.30;18.75;;;;;;;;;;5031510;28;20043;-67
2022/08/24 06:30:11;;;;;;;29.83;18.80;;;;;;;;;;5036190;28;20854;-67
2022/08/24 06:32:38;;;;;;;27.17;18.60;;;;;;;;;;5033809;28;20026;-68
2022/08/24 06:35:04;;;;;;;27.73;20.63;;;;;;;;;;5044285;28;20636;-68
2022/08/24 06:37:30;;;;;;;32.47;21.05;;;;;;;;;;5022953;28;20330;-67
2022/08/24 06:39:58;;;;;;;28.08;20.25;;;;;;;;;;5034875;28;20029;-67
2022/08/24 06:42:24;;;;;;;29.65;22.60;;;;;;;;;;5031371;28;20029;-67
2022/08/24 06:44:51;;;;;;;22.20;19.23;;;;;;;;;;5039609;28;20045;-68
2022/08/24 06:47:17;;;;;;;23.38;19.52;;;;;;;;;;5041510;28;20086;-67
2022/08/24 06:49:43;;;;;;;24.67;19.45;;;;;;;;;;5037908;28;20048;-67
2022/08/24 06:52:11;;;;;;;26.17;20.02;;;;;;;;;;5045959;28;20041;-67
2022/08/24 06:54:37;;;;;;;29.77;20.50;;;;;;;;;;5035077;28;20080;-68
2022/08/24 06:57:04;;;;;;;28.10;20.20;;;;;;;;;;5031843;28;20018;-67
2022/08/24 06:59:31;;;;;;;30.00;21.75;;;;;;;;;;5040816;28;20037;-68
2022/08/24 07:01:57;;;;;;;27.05;21.35;;;;;;;;;;5031202;28;20088;-68
2022/08/24 07:04:24;;;;;;;34.38;22.67;;;;;;;;;;5031883;28;20064;-67
2022/08/24 07:06:50;;;;;;;29.23;23.25;;;;;;;;;;5035491;28;20034;-68
2022/08/24 07:09:16;;;;;;;26.63;22.77;;;;;;;;;;5039387;28;20052;-68
2022/08/24 07:11:42;;;;;;;70.63;58.08;;;;;;;;;;5046459;28;20032;-69
2022/08/24 07:14:09;;;;;;;34.90;27.90;;;;;;;;;;5051381;28;20032;-68
2022/08/24 07:16:35;;;;;;;29.92;22.83;;;;;;;;;;5039223;28;20037;-68
2022/08/24 07:19:02;;;;;;;28.48;22.02;;;;;;;;;;5032637;28;20034;-69
2022/08/24 07:21:29;;;;;;;37.13;29.70;;;;;;;;;;5030776;28;20029;-68
2022/08/24 07:23:56;;;;;;;33.30;23.45;;;;;;;;;;5037743;28;20482;-68
2022/08/24 07:26:23;;;;;;;26.10;22.58;;;;;;;;;;5031705;28;20025;-68
2022/08/24 07:29:00;;;;;;;27.58;21.58;;;;;;;;;;5035348;28;20056;-67
2022/08/24 07:31:26;;;;;;;28.48;22.50;;;;;;;;;;5035644;28;20037;-67
2022/08/24 07:33:52;;;;;;;29.35;22.17;;;;;;;;;;5042693;28;20363;-67
2022/08/24 07:36:18;;;;;;;27.10;22.38;;;;;;;;;;5037816;28;20059;-67
2022/08/24 07:38:45;;;;;;;30.42;20.58;;;;;;;;;;5033403;28;20029;-68
2022/08/24 07:41:13;;;;;;;26.33;20.90;;;;;;;;;;5040471;28;20021;-67
2022/08/24 07:43:39;;;;;;;28.50;21.83;;;;;;;;;;5033536;28;20036;-67
2022/08/24 07:46:06;;;;;;;28.73;21.90;;;;;;;;;;5030995;28;20050;-66
2022/08/24 07:48:32;;;;;;;27.33;21.17;;;;;;;;;;5028924;28;20074;-66
2022/08/24 07:51:05;;;;;;;29.65;21.13;;;;;;;;;;5033746;28;20067;-66
2022/08/24 07:53:31;;;;;;;30.17;19.75;;;;;;;;;;5030828;28;20025;-67
2022/08/24 07:55:59;;;;;;;27.50;19.70;;;;;;;;;;5028529;28;20037;-66
2022/08/24 07:58:25;;;;;;;27.65;19.73;;;;;;;;;;5036797;28;20369;-66
2022/08/24 08:00:51;;;;;;;31.90;19.88;;;;;;;;;;5037521;28;20620;-67
2022/08/24 08:03:17;;;;;;;24.70;18.73;;;;;;;;;;5033582;28;20106;-66
2022/08/24 08:05:43;;;;;;;23.33;17.23;;;;;;;;;;5032614;28;20067;-66
2022/08/24 08:08:10;;;;;;;24.30;17.67;;;;;;;;;;5034031;28;20124;-67
2022/08/24 08:10:37;;;;;;;27.63;18.48;;;;;;;;;;5034232;28;20025;-66
2022/08/24 08:13:06;;;;;;;22.67;16.98;;;;;;;;;;5033215;28;20025;-67
2022/08/24 08:15:32;;;;;;;25.58;17.38;;;;;;;;;;5025975;28;20569;-66
2022/08/24 08:17:58;;;;;;;22.45;15.77;;;;;;;;;;5034457;28;20036;-70
2022/08/24 08:20:24;;;;;;;25.98;15.07;;;;;;;;;;5031172;28;20157;-70
2022/08/24 08:25:37;;;;;;;25.20;16.65;;;;;;;;;;5036563;28;20414;-71
2022/08/24 08:28:04;;;;;;;23.98;15.52;;;;;;;;;;5039030;28;20029;-70
2022/08/24 08:30:30;;;;;;;27.15;16.77;;;;;;;;;;5029391;28;20037;-71
2022/08/24 08:32:56;;;;;;;21.58;16.13;;;;;;;;;;5045595;28;20581;-71
2022/08/24 08:35:22;;;;;;;23.33;14.88;;;;;;;;;;5035273;28;20045;-71
2022/08/24 08:37:49;;;;;;;23.45;15.32;;;;;;;;;;5038663;28;20139;-72
2022/08/24 08:40:34;;;;;;;19.42;14.43;;;;;;;;;;5036795;28;20032;-71
2022/08/24 08:43:03;;;;;;;22.40;13.40;;;;;;;;;;5039046;28;20033;-71
2022/08/24 08:45:32;;;;;;;19.08;13.75;;;;;;;;;;5040868;28;20090;-72
2022/08/24 08:47:59;;;;;;;19.40;13.15;;;;;;;;;;5041310;28;20040;-73
2022/08/24 08:50:25;;;;;;;20.38;13.25;;;;;;;;;;5033117;28;20033;-73
2022/08/24 08:53:00;;;;;;;17.90;11.38;;;;;;;;;;5032137;28;20025;-72
2022/08/24 08:55:32;;;;;;;15.75;10.57;;;;;;;;;;5017974;28;20399;-72
2022/08/24 08:58:05;;;;;;;16.10;10.25;;;;;;;;;;5037922;28;20033;-73
2022/08/24 09:00:54;;;;;;;13.70;9.30;;;;;;;;;;5015009;28;20047;-72
2022/08/24 09:03:20;;;;;;;19.85;9.20;;;;;;;;;;4997065;28;20048;-72
2022/08/24 09:06:08;;;;;;;14.68;9.10;;;;;;;;;;5038044;28;20030;-73
2022/08/24 09:09:06;;;;;;;21.17;10.40;;;;;;;;;;5021123;28;20050;-72
2022/08/24 09:11:38;;;;;;;14.93;9.00;;;;;;;;;;5034607;28;20100;-72
2022/08/24 09:14:18;;;;;;;14.00;8.63;;;;;;;;;;5033929;28;20024;-73
2022/08/24 09:17:03;;;;;;;18.35;10.30;;;;;;;;;;5046616;28;20036;-72
2022/08/24 09:19:38;;;;;;;13.50;7.70;;;;;;;;;;5043233;28;20048;-72
2022/08/24 09:22:18;;;;;;;13.10;6.22;;;;;;;;;;5036539;28;20486;-72
2022/08/24 09:24:58;;;;;;;13.18;6.35;;;;;;;;;;5032365;28;20040;-72
2022/08/24 09:27:24;;;;;;;;;;;;;;;;;;5035048;28;20022;-73
2022/08/24 09:29:53;;;;;;;10.25;4.68;;;;;;;;;;5034323;28;19960;-72
2022/08/24 09:32:34;;;;;;;12.07;4.00;;;;;;;;;;5036847;28;20041;-73
2022/08/24 09:35:02;;;;;;;9.68;4.88;;;;;;;;;;5034261;28;20037;-72
2022/08/24 09:37:31;;;;;;;6.78;4.65;;;;;;;;;;5033359;28;20029;-72
2022/08/24 09:39:57;;;;;;;10.55;5.93;;;;;;;;;;5041260;28;20504;-72
2022/08/24 09:42:42;;;;;;;7.18;4.70;;;;;;;;;;5034832;28;20112;-72
2022/08/24 09:45:17;;;;;;;8.57;5.50;;;;;;;;;;5033687;28;20132;-72
2022/08/24 09:47:46;;;;;;;11.93;5.18;;;;;;;;;;5037037;28;20160;-72
2022/08/24 09:50:25;;;;;;;10.93;5.20;;;;;;;;;;5038714;28;20017;-73
2022/08/24 09:52:57;;;;;;;8.77;4.72;;;;;;;;;;5024291;28;20767;-73
2022/08/24 09:55:26;;;;;;;7.93;4.40;;;;;;;;;;5038318;28;20110;-72
2022/08/24 09:58:11;;;;;;;11.97;4.63;;;;;;;;;;5038152;28;20085;-73
2022/08/24 10:00:40;;;;;;;10.55;2.55;;;;;;;;;;5039260;28;20040;-73
2022/08/24 10:03:16;;;;;;;7.47;2.00;;;;;;;;;;5039655;28;20029;-73
2022/08/24 10:06:15;;;;;;;8.88;2.20;;;;;;;;;;5023258;28;20037;-72
2022/08/24 10:08:41;;;;;;;4.70;2.38;;;;;;;;;;4985734;28;20116;-72
2022/08/24 10:11:25;;;;;;;5.45;2.00;;;;;;;;;;5041062;28;20025;-69
2022/08/24 10:13:51;;;;;;;11.75;2.22;;;;;;;;;;5046222;28;20025;-72
2022/08/24 10:16:23;;;;;;;7.40;2.33;;;;;;;;;;5045080;28;20035;-73
2022/08/24 10:18:56;;;;;;;6.22;2.58;;;;;;;;;;5046995;28;20033;-69
2022/08/24 10:21:36;;;;;;;7.25;1.90;;;;;;;;;;5039493;28;20022;-72
2022/08/24 10:24:24;;;;;;;4.15;2.00;;;;;;;;;;5034598;28;20116;-72
2022/08/24 10:27:03;;;;;;;13.05;2.47;;;;;;;;;;5042294;28;20104;-72
2022/08/24 10:29:35;;;;;;;5.03;2.30;;;;;;;;;;5036001;28;20211;-71
2022/08/24 10:32:17;;;;;;;8.90;2.67;;;;;;;;;;5035022;28;20022;-73
2022/08/24 10:34:49;;;;;;;7.75;2.50;;;;;;;;;;5035252;28;20033;-72
2022/08/24 10:37:17;;;;;;;10.10;2.55;;;;;;;;;;5038611;28;20028;-72
2022/08/24 10:39:50;;;;;;;5.70;2.47;;;;;;;;;;5032909;28;20055;-72
2022/08/24 10:45:32;;;;;;;3.72;2.30;;;;;;;;;;5038097;28;20068;-72
2022/08/24 10:48:07;;;;;;;7.50;2.20;;;;;;;;;;5033129;28;20026;-73
2022/08/24 10:50:33;;;;;;;3.85;1.88;;;;;;;;;;5038062;28;20037;-72
2022/08/24 10:53:05;;;;;;;2.78;1.55;;;;;;;;;;5033078;28;20025;-71
2022/08/24 10:55:33;;;;;;;7.20;1.80;;;;;;;;;;5032525;28;20088;-72
2022/08/24 10:58:00;;;;;;;6.55;1.90;;;;;;;;;;5041444;28;20025;-72
2022/08/24 11:00:27;;;;;;;3.42;1.50;;;;;;;;;;5023756;28;20954;-72
2022/08/24 11:03:12;;;;;;;4.00;1.50;;;;;;;;;;5037627;28;20040;-72
2022/08/24 11:05:42;;;;;;;6.05;1.52;;;;;;;;;;5042517;28;20032;-72
2022/08/24 11:08:08;;;;;;;;;;;;;;;;;;5036184;28;20061;-71
2022/08/24 11:10:36;;;;;;;3.15;1.77;;;;;;;;;;5035370;28;19966;-72
2022/08/24 11:13:17;;;;;;;3.88;1.70;;;;;;;;;;5041765;28;20013;-72
2022/08/24 11:15:50;;;;;;;7.22;2.00;;;;;;;;;;5038504;28;20040;-72
2022/08/24 11:18:16;;;;;;;11.73;2.10;;;;;;;;;;5034929;28;20383;-71
2022/08/24 11:20:45;;;;;;;7.45;2.60;;;;;;;;;;5035321;28;20608;-72
2022/08/24 11:23:14;;;;;;;5.83;2.87;;;;;;;;;;5036752;28;20075;-72
2022/08/24 11:25:44;;;;;;;5.03;2.75;;;;;;;;;;5036319;28;20043;-71
2022/08/24 11:28:20;;;;;;;4.50;2.75;;;;;;;;;;5048498;28;20013;-72
2022/08/24 11:30:46;;;;;;;5.90;2.92;;;;;;;;;;5043256;28;20033;-71
2022/08/24 11:33:30;;;;;;;11.48;3.40;;;;;;;;;;5047312;28;21138;-72
2022/08/24 11:35:58;;;;;;;5.70;2.95;;;;;;;;;;5046143;28;20041;-69
2022/08/24 11:38:27;;;;;;;6.40;2.72;;;;;;;;;;5040940;28;20115;-72
2022/08/24 11:40:56;;;;;;;4.43;2.60;;;;;;;;;;5039951;28;20041;-72
2022/08/24 11:43:23;;;;;;;6.13;2.13;;;;;;;;;;5038997;28;20129;-73
2022/08/24 11:46:01;;;;;;;5.55;2.20;;;;;;;;;;5041574;28;20115;-71
2022/08/24 11:48:27;;;;;;;7.28;2.00;;;;;;;;;;5040024;28;20033;-71
2022/08/24 11:51:00;;;;;;;4.28;1.98;;;;;;;;;;5033444;28;20108;-72
2022/08/24 11:54:00;;;;;;;5.65;1.85;;;;;;;;;;5038177;28;20147;-72
2022/08/24 11:56:29;;;;;;;6.25;1.98;;;;;;;;;;5004956;28;20493;-72
2022/08/24 11:59:00;;;;;;;14.05;2.40;;;;;;;;;;5044204;28;20033;-72
2022/08/24 12:01:35;;;;;;;5.40;1.55;;;;;;;;;;5039344;28;20565;-72
2022/08/24 12:04:01;;;;;;;4.05;1.25;;;;;;;;;;5027331;28;20025;-72
2022/08/24 12:06:27;;;;;;;8.90;1.50;;;;;;;;;;5050332;28;20036;-71
2022/08/24 12:09:02;;;;;;;4.45;1.67;;;;;;;;;;5031819;28;20102;-71
2022/08/24 12:11:39;;;;;;;4.43;1.42;;;;;;;;;;5049253;28;20021;-71
2022/08/24 12:14:05;;;;;;;5.57;1.30;;;;;;;;;;5036584;28;20025;-72
2022/08/24 12:16:35;;;;;;;7.47;1.38;;;;;;;;;;5034285;28;20036;-72
2022/08/24 12:19:07;;;;;;;6.88;1.30;;;;;;;;;;5018930;28;20041;-71
2022/08/24 12:21:36;;;;;;;6.57;1.20;;;;;;;;;;5035092;28;20033;-71
2022/08/24 12:24:08;;;;;;;2.35;1.38;;;;;;;;;;5025032;28;20036;-72
2022/08/24 12:26:51;;;;;;;5.53;1.30;;;;;;;;;;5032482;28;20700;-71
2022/08/24 12:29:28;;;;;;;3.40;1.40;;;;;;;;;;5032756;28;20044;-71
2022/08/24 12:31:58;;;;;;;7.70;1.35;;;;;;;;;;5032389;28;20021;-71
2022/08/24 12:34:36;;;;;;;3.50;1.25;;;;;;;;;;5031019;28;20071;-71
2022/08/24 12:37:18;;;;;;;5.57;1.20;;;;;;;;;;5037442;28;20120;-72
2022/08/24 12:39:46;;;;;;;2.20;1.10;;;;;;;;;;5020065;28;20025;-72
2022/08/24 12:42:21;;;;;;;4.65;1.13;;;;;;;;;;5035183;28;20163;-72
2022/08/24 12:44:55;;;;;;;3.17;0.95;;;;;;;;;;5033697;28;20049;-72
2022/08/24 12:47:24;;;;;;;1.52;0.80;;;;;;;;;;5029479;28;20025;-71
2022/08/24 12:49:54;;;;;;;2.60;0.70;;;;;;;;;;5035952;28;20053;-72
2022/08/24 12:52:32;;;;;;;2.22;0.95;;;;;;;;;;5036221;28;20067;-72
2022/08/24 12:55:18;;;;;;;2.72;1.38;;;;;;;;;;5031298;28;20029;-72
2022/08/24 12:57:47;;;;;;;5.18;1.30;;;;;;;;;;5020086;28;20035;-72
2022/08/24 13:00:21;;;;;;;6.87;1.87;;;;;;;;;;5034152;28;20111;-72
2022/08/24 13:02:58;;;;;;;3.97;2.10;;;;;;;;;;5034836;28;20025;-72
2022/08/24 13:05:24;;;;;;;5.93;2.20;;;;;;;;;;5036492;28;20025;-72
2022/08/24 13:07:53;;;;;;;6.80;2.42;;;;;;;;;;5033979;28;20092;-72
2022/08/24 13:10:23;;;;;;;4.57;2.05;;;;;;;;;;5031310;28;20033;-71
2022/08/24 13:12:57;;;;;;;6.78;1.73;;;;;;;;;;5032423;28;20030;-72
2022/08/24 13:15:23;;;;;;;3.00;1.60;;;;;;;;;;5038209;28;21466;-72
2022/08/24 13:17:51;;;;;;;5.65;2.25;;;;;;;;;;5031120;28;20465;-72
2022/08/24 13:20:23;;;;;;;5.97;1.83;;;;;;;;;;5036754;28;20032;-71
2022/08/24 13:23:07;;;;;;;5.10;2.00;;;;;;;;;;5031834;28;20483;-71
2022/08/24 13:25:52;;;;;;;7.78;2.38;;;;;;;;;;5036324;28;20026;-72
2022/08/24 13:30:53;;;;;;;5.00;2.20;;;;;;;;;;5037731;28;20073;-73
2022/08/24 13:33:35;;;;;;;3.75;1.95;;;;;;;;;;5036198;28;20040;-74
2022/08/24 13:36:21;;;;;;;5.30;1.70;;;;;;;;;;5025362;28;20056;-72
2022/08/24 13:38:52;;;;;;;7.93;2.33;;;;;;;;;;5034344;28;20067;-72
2022/08/24 13:41:36;;;;;;;5.22;2.00;;;;;;;;;;5037758;28;20111;-70
2022/08/24 13:44:05;;;;;;;7.30;2.30;;;;;;;;;;5049643;28;20678;-73
2022/08/24 13:46:45;;;;;;;9.57;2.30;;;;;;;;;;5042026;28;20493;-72
2022/08/24 13:49:14;;;;;;;152.52;9.13;;;;;;;;;;5043938;28;20056;-72
2022/08/24 13:51:56;;;;;;;3.47;2.10;;;;;;;;;;5043055;28;20056;-72
2022/08/24 13:54:22;;;;;;;5.72;1.90;;;;;;;;;;5041868;28;20033;-72
2022/08/24 13:57:03;;;;;;;4.05;2.00;;;;;;;;;;5028489;28;20446;-72
2022/08/24 13:59:52;;;;;;;4.05;2.03;;;;;;;;;;5046255;28;20051;-71
2022/08/24 14:02:37;;;;;;;10.15;2.30;;;;;;;;;;5041631;28;20033;-70
2022/08/24 14:05:17;;;;;;;12.63;2.15;;;;;;;;;;5042556;28;20033;-72
2022/08/24 14:07:58;;;;;;;5.75;1.80;;;;;;;;;;5038617;28;20029;-72
2022/08/24 14:10:40;;;;;;;6.68;2.10;;;;;;;;;;5043241;28;20068;-72
2022/08/24 14:13:25;;;;;;;4.68;1.80;;;;;;;;;;5040459;28;20026;-71
2022/08/24 14:19:06;;;;;;;3.28;1.90;;;;;;;;;;5039468;28;20103;-72
2022/08/24 14:21:46;;;;;;;5.57;1.75;;;;;;;;;;5047543;28;20028;-71
2022/08/24 14:24:39;;;;;;;4.32;1.90;;;;;;;;;;5040221;28;20056;-70
2022/08/24 14:27:31;;;;;;;4.80;1.90;;;;;;;;;;5022135;28;20041;-72
2022/08/24 14:30:15;;;;;;;4.82;1.92;;;;;;;;;;5048995;28;20348;-73
2022/08/24 14:32:44;;;;;;;3.42;2.30;;;;;;;;;;5045189;28;20029;-72
2022/08/24 14:35:22;;;;;;;3.83;2.15;;;;;;;;;;5039834;28;20026;-74
2022/08/24 14:38:00;;;;;;;5.10;2.20;;;;;;;;;;5041003;28;20033;-74
2022/08/24 14:40:29;;;;;;;5.75;1.95;;;;;;;;;;5043576;28;20318;-73
2022/08/24 14:42:57;;;;;;;5.75;2.03;;;;;;;;;;5048502;28;20594;-72
2022/08/24 14:45:23;;;;;;;3.10;2.17;;;;;;;;;;5052197;28;20366;-74
2022/08/24 14:48:08;;;;;;;5.50;2.10;;;;;;;;;;5066006;28;20047;-71
2022/08/24 14:50:39;;;;;;;3.90;1.98;;;;;;;;;;5056556;28;20017;-72
2022/08/24 14:53:22;;;;;;;3.85;1.80;;;;;;;;;;5053919;28;20024;-71
2022/08/24 14:56:06;;;;;;;2.55;1.70;;;;;;;;;;5053478;28;20029;-71
2022/08/24 14:58:47;;;;;;;4.60;1.65;;;;;;;;;;5055041;28;20052;-72
2022/08/24 15:01:31;;;;;;;5.53;1.50;;;;;;;;;;5057819;28;20019;-72